createdAt,value
2022-12-26T00:00:52.053Z,8.25
2022-12-26T00:03:19.175Z,8.32
2022-12-26T00:05:46.198Z,8.48
2022-12-26T00:08:13.017Z,8.38
2022-12-26T00:10:40.047Z,8.02
2022-12-26T00:13:40.072Z,7.78
2022-12-26T00:15:53.993Z,7.13
2022-12-26T00:18:20.918Z,6.63
2022-12-26T00:20:47.813Z,7.20
2022-12-26T00:23:14.582Z,6.78
2022-12-26T00:25:41.605Z,7.10
2022-12-26T00:28:08.463Z,7.47
2022-12-26T00:30:38.339Z,6.25
2022-12-26T00:33:05.271Z,7.03
2022-12-26T00:35:32.043Z,7.03
2022-12-26T00:37:59.013Z,6.88
2022-12-26T00:40:26.103Z,5.85
2022-12-26T00:42:52.805Z,6.95
2022-12-26T00:45:19.781Z,7.72
2022-12-26T00:47:46.723Z,7.32
2022-12-26T00:50:15.796Z,7.07
2022-12-26T00:52:43.111Z,6.90
2022-12-26T00:55:10.996Z,7.35
2022-12-26T00:57:37.978Z,7.82
2022-12-26T01:00:05.931Z,6.45
2022-12-26T01:02:39.047Z,6.53
2022-12-26T01:05:11.141Z,7.80
2022-12-26T01:08:20.242Z,7.03
2022-12-26T01:10:28.015Z,6.15
2022-12-26T01:12:55.031Z,6.20
2022-12-26T01:15:21.935Z,5.75
2022-12-26T01:17:48.915Z,5.30
2022-12-26T01:20:16.007Z,7.10
2022-12-26T01:22:42.896Z,5.13
2022-12-26T01:25:11.856Z,6.63
2022-12-26T01:27:38.560Z,7.22
2022-12-26T01:30:06.102Z,5.68
2022-12-26T01:32:33.011Z,6.57
2022-12-26T01:34:59.998Z,7.47
2022-12-26T01:37:26.900Z,6.68
2022-12-26T01:39:53.649Z,7.40
2022-12-26T01:42:23.300Z,7.93
2022-12-26T01:45:26.680Z,7.70
2022-12-26T01:48:00.098Z,8.80
2022-12-26T01:50:41.664Z,9.43
2022-12-26T01:53:30.717Z,9.40
2022-12-26T01:56:06.392Z,9.60
2022-12-26T01:59:01.859Z,8.57
2022-12-26T02:01:32.528Z,9.60
2022-12-26T02:04:21.338Z,8.98
2022-12-26T02:06:48.334Z,8.43
2022-12-26T02:09:15.304Z,9.43
2022-12-26T02:12:35.719Z,10.25
2022-12-26T02:14:38.351Z,8.55
2022-12-26T02:17:05.941Z,9.15
2022-12-26T02:19:35.646Z,9.50
2022-12-26T02:22:22.227Z,10.38
2022-12-26T02:25:08.038Z,9.90
2022-12-26T02:27:44.226Z,9.82
2022-12-26T02:30:20.281Z,9.63
2022-12-26T02:33:14.154Z,10.15
2022-12-26T02:35:51.458Z,10.93
2022-12-26T02:38:46.203Z,11.20
2022-12-26T02:41:26.977Z,12.30
2022-12-26T02:44:35.995Z,10.95
2022-12-26T02:47:12.808Z,11.00
2022-12-26T02:50:08.040Z,10.93
2022-12-26T02:53:05.815Z,8.23
2022-12-26T02:55:55.692Z,10.60
2022-12-26T02:58:50.357Z,10.27
2022-12-26T03:01:58.905Z,10.43
2022-12-26T03:04:48.463Z,10.02
2022-12-26T03:07:59.395Z,10.35
2022-12-26T03:10:54.273Z,10.93
2022-12-26T03:13:28.816Z,12.10
2022-12-26T03:16:17.202Z,12.18
2022-12-26T03:18:57.756Z,10.65
2022-12-26T03:21:30.051Z,11.25
2022-12-26T03:23:57.328Z,11.38
2022-12-26T03:26:42.207Z,11.48
2022-12-26T03:29:30.649Z,12.00
2022-12-26T03:31:58.293Z,11.25
2022-12-26T03:34:25.644Z,9.75
2022-12-26T03:37:10.571Z,10.40
2022-12-26T03:40:03.613Z,9.95
2022-12-26T03:43:20.049Z,10.00
2022-12-26T03:46:22.071Z,9.45
2022-12-26T03:49:21.467Z,9.68
2022-12-26T03:52:22.879Z,9.77
2022-12-26T03:55:23.520Z,9.35
2022-12-26T03:58:25.967Z,10.07
2022-12-26T04:01:15.129Z,10.13
2022-12-26T04:04:03.708Z,9.70
2022-12-26T04:07:23.804Z,9.73
2022-12-26T04:10:21.884Z,9.52
2022-12-26T04:13:09.682Z,9.90
2022-12-26T04:16:06.900Z,11.13
2022-12-26T04:19:02.837Z,10.10
2022-12-26T04:22:03.117Z,9.48
2022-12-26T04:24:55.889Z,9.60
2022-12-26T04:27:46.637Z,9.07
2022-12-26T04:30:32.140Z,9.35
2022-12-26T04:36:14.015Z,9.43
2022-12-26T04:39:09.793Z,8.32
2022-12-26T04:44:24.671Z,8.90
2022-12-26T04:46:53.692Z,8.82
2022-12-26T04:49:38.968Z,9.48
2022-12-26T04:54:34.808Z,7.63
2022-12-26T04:57:01.745Z,7.93
2022-12-26T04:59:28.776Z,6.88
2022-12-26T05:02:14.808Z,6.75
2022-12-26T05:05:00.265Z,8.00
2022-12-26T05:07:52.713Z,5.70
2022-12-26T05:10:25.606Z,6.22
2022-12-26T05:12:53.292Z,6.28
2022-12-26T05:15:21.130Z,5.30
2022-12-26T05:18:06.610Z,5.07
2022-12-26T05:20:52.212Z,5.43
2022-12-26T05:23:44.259Z,5.88
2022-12-26T05:26:36.341Z,5.75
2022-12-26T05:29:04.254Z,5.70
2022-12-26T05:31:36.060Z,6.45
2022-12-26T05:34:16.236Z,6.15
2022-12-26T05:36:48.149Z,5.50
2022-12-26T05:39:15.259Z,6.30
2022-12-26T05:41:42.260Z,5.70
2022-12-26T05:44:10.034Z,5.80
2022-12-26T05:46:37.674Z,5.70
2022-12-26T05:49:05.351Z,5.00
2022-12-26T05:51:32.665Z,5.25
2022-12-26T05:53:59.921Z,4.40
2022-12-26T05:56:26.965Z,4.60
2022-12-26T05:58:58.831Z,4.60
2022-12-26T06:01:28.254Z,3.95
2022-12-26T06:03:57.961Z,4.18
2022-12-26T06:06:25.953Z,4.07
2022-12-26T06:08:54.792Z,4.65
2022-12-26T06:11:22.859Z,3.78
2022-12-26T06:13:49.824Z,3.22
2022-12-26T06:16:19.391Z,3.67
2022-12-26T06:18:46.855Z,3.65
2022-12-26T06:21:19.362Z,3.40
2022-12-26T06:23:46.251Z,3.25
2022-12-26T06:26:13.896Z,3.47
2022-12-26T06:28:42.318Z,3.25
2022-12-26T06:31:20.759Z,4.18
2022-12-26T06:33:50.784Z,3.63
2022-12-26T06:36:20.381Z,3.72
2022-12-26T06:38:47.605Z,3.58
2022-12-26T06:41:17.809Z,3.40
2022-12-26T06:43:44.753Z,3.75
2022-12-26T06:46:16.912Z,4.15
2022-12-26T06:48:44.390Z,3.72
2022-12-26T06:51:14.194Z,3.97
2022-12-26T06:53:41.801Z,3.78
2022-12-26T06:56:30.040Z,3.75
2022-12-26T06:58:59.324Z,3.25
2022-12-26T07:01:28.196Z,4.22
2022-12-26T07:03:56.264Z,4.38
2022-12-26T07:06:28.698Z,4.50
2022-12-26T07:09:17.150Z,3.92
2022-12-26T07:11:46.859Z,3.90
2022-12-26T07:14:14.243Z,4.32
2022-12-26T07:16:43.243Z,4.20
2022-12-26T07:19:12.435Z,3.92
2022-12-26T07:21:41.246Z,4.20
2022-12-26T07:24:18.114Z,3.95
2022-12-26T07:26:45.475Z,4.30
2022-12-26T07:29:13.296Z,4.57
2022-12-26T07:31:41.020Z,4.85
2022-12-26T07:34:08.407Z,5.43
2022-12-26T07:36:35.277Z,5.97
2022-12-26T07:39:02.158Z,4.82
2022-12-26T07:41:48.391Z,4.93
2022-12-26T07:44:15.384Z,5.00
2022-12-26T07:46:42.372Z,5.13
2022-12-26T07:49:11.367Z,4.95
2022-12-26T07:51:38.679Z,5.13
2022-12-26T07:54:11.115Z,5.38
2022-12-26T07:56:38.440Z,5.10
2022-12-26T07:59:05.749Z,4.90
2022-12-26T08:01:32.702Z,4.75
2022-12-26T08:03:59.670Z,4.63
2022-12-26T08:06:26.567Z,5.38
2022-12-26T08:08:53.606Z,5.63
2022-12-26T08:11:24.508Z,5.72
2022-12-26T08:13:52.466Z,6.20
2022-12-26T08:16:20.310Z,6.05
2022-12-26T08:18:47.667Z,6.30
2022-12-26T08:21:14.812Z,6.20
2022-12-26T08:23:41.936Z,5.82
2022-12-26T08:26:11.796Z,6.28
2022-12-26T08:28:39.613Z,7.15
2022-12-26T08:31:12.849Z,7.25
2022-12-26T08:33:40.018Z,6.95
2022-12-26T08:36:09.922Z,6.57
2022-12-26T08:38:37.566Z,7.85
2022-12-26T08:41:04.557Z,6.93
2022-12-26T08:43:53.125Z,7.38
2022-12-26T08:46:20.665Z,7.45
2022-12-26T08:48:48.008Z,8.02
2022-12-26T08:51:16.208Z,8.05
2022-12-26T08:53:43.912Z,8.32
2022-12-26T08:56:15.071Z,9.07
2022-12-26T08:58:42.749Z,9.15
2022-12-26T09:01:13.333Z,9.55
2022-12-26T09:03:41.939Z,9.25
2022-12-26T09:06:10.790Z,9.93
2022-12-26T09:08:39.179Z,10.07
2022-12-26T09:11:08.765Z,10.70
2022-12-26T09:13:36.385Z,11.02
2022-12-26T09:16:13.234Z,11.40
2022-12-26T09:18:40.535Z,11.43
2022-12-26T09:21:10.639Z,11.32
2022-12-26T09:23:38.103Z,11.68
2022-12-26T09:26:12.255Z,11.82
2022-12-26T09:28:39.765Z,11.47
2022-12-26T09:31:10.269Z,12.32
2022-12-26T09:33:38.845Z,11.40
2022-12-26T09:36:14.773Z,11.85
2022-12-26T09:38:43.111Z,12.13
2022-12-26T09:41:44.012Z,11.77
2022-12-26T09:44:13.591Z,10.95
2022-12-26T09:47:07.889Z,12.25
2022-12-26T09:49:39.338Z,11.68
2022-12-26T09:52:14.544Z,11.15
2022-12-26T09:54:46.111Z,10.15
2022-12-26T09:57:17.547Z,11.13
2022-12-26T09:59:56.127Z,10.90
2022-12-26T10:02:25.770Z,10.98
2022-12-26T10:04:55.010Z,10.00
2022-12-26T10:07:41.017Z,10.35
2022-12-26T10:10:19.429Z,10.27
2022-12-26T10:13:22.518Z,9.40
2022-12-26T10:16:00.404Z,8.45
2022-12-26T10:18:52.252Z,9.25
2022-12-26T10:21:34.092Z,8.10
2022-12-26T10:24:16.038Z,8.25
2022-12-26T10:26:49.940Z,7.97
2022-12-26T10:29:16.940Z,6.37
2022-12-26T10:31:57.000Z,6.97
2022-12-26T10:34:36.790Z,7.47
2022-12-26T10:37:22.299Z,7.20
2022-12-26T10:39:56.683Z,6.20
2022-12-26T10:42:30.259Z,6.75
2022-12-26T10:44:58.653Z,6.28
2022-12-26T10:47:32.198Z,6.53
2022-12-26T10:50:00.268Z,6.15
2022-12-26T10:52:33.077Z,6.80
2022-12-26T10:55:29.271Z,7.22
2022-12-26T10:57:51.088Z,6.05
2022-12-26T11:00:29.024Z,7.45
2022-12-26T11:03:06.769Z,7.53
2022-12-26T11:06:06.255Z,7.18
2022-12-26T11:08:34.141Z,6.97
2022-12-26T11:11:14.627Z,7.32
2022-12-26T11:13:50.957Z,7.65
2022-12-26T11:16:27.215Z,7.22
2022-12-26T11:18:54.806Z,8.02
2022-12-26T11:21:27.466Z,7.70
2022-12-26T11:24:16.658Z,7.07
2022-12-26T11:26:44.711Z,7.63
2022-12-26T11:29:20.655Z,7.25
2022-12-26T11:31:58.568Z,8.30
2022-12-26T11:34:37.656Z,7.85
2022-12-26T11:37:07.803Z,8.18
2022-12-26T11:39:38.204Z,7.70
2022-12-26T11:42:13.394Z,8.30
2022-12-26T11:44:45.516Z,7.30
2022-12-26T11:47:18.470Z,8.52
2022-12-26T11:50:01.877Z,7.93
2022-12-26T11:52:55.543Z,8.43
2022-12-26T11:55:34.719Z,8.25
2022-12-26T11:58:10.618Z,8.73
2022-12-26T12:00:44.935Z,9.25
2022-12-26T12:03:18.134Z,8.60
2022-12-26T12:05:45.187Z,8.93
2022-12-26T12:08:35.246Z,8.43
2022-12-26T12:11:07.969Z,8.02
2022-12-26T12:13:49.579Z,9.13
2022-12-26T12:16:19.216Z,10.70
2022-12-26T12:19:20.157Z,8.27
2022-12-26T12:22:12.081Z,8.93
2022-12-26T12:25:16.787Z,9.35
2022-12-26T12:27:58.185Z,8.90
2022-12-26T12:30:31.839Z,8.60
2022-12-26T12:33:25.899Z,8.20
2022-12-26T12:36:01.871Z,8.02
2022-12-26T12:38:54.696Z,8.43
2022-12-26T12:41:42.033Z,8.93
2022-12-26T12:44:21.613Z,9.13
2022-12-26T12:47:13.110Z,9.35
2022-12-26T12:49:55.277Z,8.88
2022-12-26T12:52:54.549Z,9.63
2022-12-26T12:55:33.591Z,9.07
2022-12-26T12:58:11.743Z,9.70
2022-12-26T13:00:53.439Z,9.95
2022-12-26T13:03:33.374Z,10.88
2022-12-26T13:06:06.595Z,9.95
2022-12-26T13:08:39.688Z,10.07
2022-12-26T13:11:33.476Z,11.40
2022-12-26T13:14:29.143Z,11.30
2022-12-26T13:17:06.191Z,11.68
2022-12-26T13:19:51.733Z,12.05
2022-12-26T13:22:58.095Z,11.00
2022-12-26T13:25:28.399Z,12.18
2022-12-26T13:28:09.794Z,13.10
2022-12-26T13:30:38.557Z,14.35
2022-12-26T13:33:06.450Z,13.15
2022-12-26T13:35:53.693Z,14.23
2022-12-26T13:38:22.705Z,13.63
2022-12-26T13:41:18.188Z,14.55
2022-12-26T13:44:20.282Z,15.15
2022-12-26T13:46:47.225Z,14.77
2022-12-26T13:49:46.538Z,14.57
2022-12-26T13:52:16.208Z,15.32
2022-12-26T13:54:50.567Z,17.02
2022-12-26T13:57:44.864Z,17.23
2022-12-26T14:00:44.524Z,17.52
2022-12-26T14:03:38.490Z,17.42
2022-12-26T14:06:27.287Z,16.27
2022-12-26T14:09:20.627Z,16.92
2022-12-26T14:12:15.392Z,17.73
2022-12-26T14:14:57.249Z,15.83
2022-12-26T14:17:47.557Z,17.17
2022-12-26T14:20:39.882Z,17.20
2022-12-26T14:23:31.283Z,17.30
2022-12-26T14:26:26.078Z,17.40
2022-12-26T14:29:31.741Z,17.67
2022-12-26T14:32:11.136Z,16.42
2022-12-26T14:35:15.189Z,17.60
2022-12-26T14:37:56.448Z,18.13
2022-12-26T14:40:29.234Z,17.73
2022-12-26T14:43:17.532Z,17.20
2022-12-26T14:45:47.608Z,16.77
2022-12-26T14:48:17.345Z,17.50
2022-12-26T14:50:52.796Z,17.27
2022-12-26T14:53:28.660Z,17.73
2022-12-26T14:55:57.131Z,14.77
2022-12-26T14:58:42.606Z,15.65
2022-12-26T15:01:09.544Z,15.40
2022-12-26T15:03:49.258Z,16.67
2022-12-26T15:06:18.909Z,18.27
2022-12-26T15:09:04.560Z,16.15
2022-12-26T15:11:52.223Z,16.05
2022-12-26T15:14:46.815Z,17.33
2022-12-26T15:17:40.218Z,12.25
2022-12-26T15:20:09.876Z,15.63
2022-12-26T15:22:54.852Z,16.42
2022-12-26T15:25:36.555Z,15.25
2022-12-26T15:28:34.581Z,16.05
2022-12-26T15:31:31.019Z,15.10
2022-12-26T15:34:35.694Z,14.75
2022-12-26T15:37:17.921Z,15.10
2022-12-26T15:40:15.563Z,15.85
2022-12-26T15:43:18.902Z,16.02
2022-12-26T15:45:57.970Z,16.08
2022-12-26T15:48:27.550Z,15.15
2022-12-26T15:50:57.332Z,16.50
2022-12-26T15:53:38.321Z,16.10
2022-12-26T15:56:32.685Z,15.27
2022-12-26T15:59:08.923Z,15.52
2022-12-26T16:01:40.715Z,16.10
2022-12-26T16:04:46.448Z,15.90
2022-12-26T16:07:52.492Z,14.60
2022-12-26T16:13:20.737Z,15.48
2022-12-26T16:15:56.605Z,15.48
2022-12-26T16:18:28.577Z,16.05
2022-12-26T16:21:17.692Z,15.77
2022-12-26T16:23:46.908Z,15.45
2022-12-26T16:26:44.266Z,15.18
2022-12-26T16:29:17.579Z,12.43
2022-12-26T16:31:45.762Z,15.50
2022-12-26T16:34:20.528Z,15.98
2022-12-26T16:36:51.143Z,15.45
2022-12-26T16:39:23.559Z,16.70
2022-12-26T16:42:06.979Z,13.50
2022-12-26T16:44:40.000Z,14.98
2022-12-26T16:47:13.358Z,14.32
2022-12-26T16:49:45.409Z,14.35
2022-12-26T16:52:45.642Z,15.43
2022-12-26T16:55:22.525Z,14.45
2022-12-26T16:57:54.263Z,15.25
2022-12-26T17:00:21.653Z,16.02
2022-12-26T17:02:53.599Z,14.35
2022-12-26T17:05:26.632Z,15.65
2022-12-26T17:07:56.005Z,14.70
2022-12-26T17:10:26.647Z,15.65
2022-12-26T17:12:56.321Z,15.52
2022-12-26T17:15:26.980Z,17.20
2022-12-26T17:17:54.019Z,17.08
2022-12-26T17:20:23.637Z,16.80
2022-12-26T17:22:50.474Z,17.30
2022-12-26T17:25:33.867Z,17.40
2022-12-26T17:28:10.054Z,17.63
2022-12-26T17:30:39.686Z,17.40
2022-12-26T17:33:26.862Z,18.35
2022-12-26T17:39:26.996Z,18.05
2022-12-26T17:42:00.512Z,18.63
2022-12-26T17:44:36.538Z,19.00
2022-12-26T17:47:13.540Z,19.77
2022-12-26T17:49:40.405Z,19.85
2022-12-26T17:52:10.183Z,19.55
2022-12-26T17:54:37.050Z,20.05
2022-12-26T17:57:04.020Z,20.33
2022-12-26T17:59:30.951Z,18.50
2022-12-26T18:01:58.007Z,18.35
2022-12-26T18:04:24.783Z,19.02
2022-12-26T18:06:51.898Z,18.63
2022-12-26T18:09:27.075Z,18.73
2022-12-26T18:11:54.562Z,17.50
2022-12-26T18:14:21.991Z,17.67
2022-12-26T18:16:50.766Z,17.95
2022-12-26T18:19:19.639Z,18.77
2022-12-26T18:21:47.330Z,18.35
2022-12-26T18:24:14.305Z,18.80
2022-12-26T18:26:41.329Z,16.30
2022-12-26T18:29:10.122Z,17.80
2022-12-26T18:31:39.759Z,17.05
2022-12-26T18:34:07.093Z,16.30
2022-12-26T18:36:37.131Z,14.85
2022-12-26T18:39:05.654Z,15.35
2022-12-26T18:41:32.667Z,14.70
2022-12-26T18:43:59.941Z,14.07
2022-12-26T18:46:28.829Z,12.82
2022-12-26T18:48:56.971Z,12.73
2022-12-26T18:51:25.837Z,12.25
2022-12-26T18:53:52.673Z,12.52
2022-12-26T18:56:21.355Z,12.20
2022-12-26T18:58:54.082Z,9.70
2022-12-26T19:01:26.409Z,10.93
2022-12-26T19:03:54.104Z,10.50
2022-12-26T19:06:26.923Z,9.23
2022-12-26T19:08:54.097Z,9.40
2022-12-26T19:11:23.589Z,9.18
2022-12-26T19:13:50.739Z,7.72
2022-12-26T19:16:17.858Z,7.55
2022-12-26T19:18:44.838Z,8.93
2022-12-26T19:21:15.470Z,8.45
2022-12-26T19:23:46.518Z,8.82
2022-12-26T19:26:16.340Z,8.43
2022-12-26T19:28:43.370Z,8.63
2022-12-26T19:31:12.935Z,8.52
2022-12-26T19:33:40.221Z,8.43
2022-12-26T19:36:08.466Z,7.82
2022-12-26T19:38:35.800Z,7.90
2022-12-26T19:41:03.506Z,7.50
2022-12-26T19:43:30.895Z,7.47
2022-12-26T19:46:02.856Z,7.97
2022-12-26T19:48:31.515Z,7.32
2022-12-26T19:51:06.712Z,7.47
2022-12-26T19:53:35.202Z,7.50
2022-12-26T19:56:11.491Z,7.47
2022-12-26T19:58:38.544Z,7.70
2022-12-26T20:01:19.431Z,7.25
2022-12-26T20:03:46.432Z,7.40
2022-12-26T20:06:20.104Z,7.28
2022-12-26T20:08:49.280Z,7.20
2022-12-26T20:11:23.177Z,6.05
2022-12-26T20:13:51.091Z,6.90
2022-12-26T20:17:03.351Z,5.50
2022-12-26T20:19:11.091Z,4.85
2022-12-26T20:21:38.657Z,4.43
2022-12-26T20:24:05.783Z,4.65
2022-12-26T20:26:32.704Z,4.53
2022-12-26T20:29:02.517Z,3.80
2022-12-26T20:31:32.014Z,4.00
2022-12-26T20:33:59.737Z,4.25
2022-12-26T20:36:32.140Z,4.18
2022-12-26T20:39:01.631Z,3.60
2022-12-26T20:41:29.314Z,4.43
2022-12-26T20:43:56.767Z,4.03
2022-12-26T20:46:29.720Z,3.92
2022-12-26T20:48:56.779Z,4.88
2022-12-26T20:51:29.022Z,4.35
2022-12-26T20:54:00.846Z,3.90
2022-12-26T20:56:28.764Z,3.70
2022-12-26T20:58:57.046Z,4.35
2022-12-26T21:01:23.938Z,3.53
2022-12-26T21:03:54.459Z,3.50
2022-12-26T21:06:29.002Z,2.90
2022-12-26T21:08:57.862Z,2.40
2022-12-26T21:11:28.180Z,2.75
2022-12-26T21:13:58.334Z,2.45
2022-12-26T21:16:31.735Z,2.10
2022-12-26T21:18:59.440Z,2.70
2022-12-26T21:21:33.636Z,2.28
2022-12-26T21:24:07.341Z,2.00
2022-12-26T21:26:38.792Z,2.15
2022-12-26T21:29:08.133Z,2.30
2022-12-26T21:31:36.046Z,2.50
2022-12-26T21:34:04.117Z,2.35
2022-12-26T21:36:31.517Z,2.08
2022-12-26T21:38:58.521Z,2.60
2022-12-26T21:41:25.928Z,2.78
2022-12-26T21:43:56.052Z,2.90
2022-12-26T21:46:23.145Z,2.33
2022-12-26T21:48:50.714Z,2.60
2022-12-26T21:51:26.066Z,2.35
2022-12-26T21:54:12.952Z,2.50
2022-12-26T21:56:39.853Z,2.50
2022-12-26T21:59:41.002Z,3.15
2022-12-26T22:02:32.138Z,2.70
2022-12-26T22:05:00.360Z,3.00
2022-12-26T22:07:28.474Z,2.40
2022-12-26T22:09:55.411Z,2.72
2022-12-26T22:12:41.377Z,2.75
2022-12-26T22:15:27.691Z,2.85
2022-12-26T22:17:54.638Z,2.67
2022-12-26T22:20:23.255Z,2.60
2022-12-26T22:22:51.853Z,2.90
2022-12-26T22:25:19.772Z,2.88
2022-12-26T22:27:46.611Z,2.72
2022-12-26T22:30:13.888Z,2.83
2022-12-26T22:32:40.878Z,2.75
2022-12-26T22:35:11.862Z,2.50
2022-12-26T22:37:41.756Z,1.60
2022-12-26T22:40:09.326Z,2.30
2022-12-26T22:42:36.387Z,2.38
2022-12-26T22:45:03.745Z,2.13
2022-12-26T22:47:30.726Z,2.70
2022-12-26T22:49:57.751Z,2.47
2022-12-26T22:52:24.760Z,2.40
2022-12-26T22:54:51.490Z,1.98
2022-12-26T22:57:18.309Z,2.50
2022-12-26T23:02:32.213Z,2.20
2022-12-26T23:04:59.554Z,2.28
2022-12-26T23:07:26.803Z,2.03
2022-12-26T23:09:53.927Z,2.40
2022-12-26T23:12:39.972Z,2.00
2022-12-26T23:15:07.347Z,1.75
2022-12-26T23:17:56.974Z,2.15
2022-12-26T23:20:45.687Z,2.20
2022-12-26T23:23:12.867Z,1.83
2022-12-26T23:25:39.847Z,1.90
2022-12-26T23:28:25.520Z,1.90
2022-12-26T23:30:52.660Z,1.75
2022-12-26T23:33:19.572Z,1.73
2022-12-26T23:35:46.271Z,1.42
2022-12-26T23:38:13.385Z,2.05
2022-12-26T23:40:40.481Z,1.80
2022-12-26T23:43:07.518Z,1.60
2022-12-26T23:45:34.494Z,1.73
2022-12-26T23:48:01.249Z,1.90
2022-12-26T23:50:28.207Z,1.60
2022-12-26T23:52:55.241Z,1.73
2022-12-26T23:55:22.442Z,1.70
2022-12-26T23:57:49.558Z,1.58
